Ana Sayfa
METAR-TAF:

METAR-TAF

Havaalanları :

Hürremabad Havaalanı

Hürremabad, İran

Enlem: 33-26-11N, Boylam: 048-17-09E, yükseklik: 1155 m

Güncel hava durumu gözlemi

Rapor saat 12:00 UTC de 31 dakika önce yapıldı.
Sakin rüzgar
Sıcaklık 6°C
Nem 87%
Basınç 1015 hPa
Görüş mesafesi 10 km veya daha fazla
2000 ft yükseklikte az bulutlu
3000 ft yükseklikte az bulutlu, Kümülonimbus.
3500 ft yükseklikte parçalı bulutlu
10000 ft yükseklikte parçalı çok bulutlu

METAR: OICK 081200Z 00000KT 9999 FEW020 FEW030CB SCT035 BKN100 06/04 Q1015

Saat: 16:01 (12:31 UTC)


TAF: eksik

4.000'den fazla havaalanı için hava durumu gözlemleri ve tahminleri (METAR ve TAF raporları).

Kullanılabilir istasyonlar harita üzerinde sarı ve kırmızı noktalarla gösterilir.

İstasyonun adını görmek için fareyi noktanın üzerinde gezdirin.

Sonrasında hava gözlem ve tahminlerini görmek için tıklayın.

Haritayı değiştirmek için: yaklaştırmak için siyah artı işaretli yeşil düğmeye ve uzaklaştırmak için de eksi işaretli düğmeye hızla tıklayın; bitişik haritalar için yeşil okları kullanın.


METAR-TAF: